sensor_id;sensor_type;location;lat;lon;timestamp;temperature;humidity
18388;DHT22;9320;50.256;19.026;2023-02-11T00:02:25;1.20;90.70
18388;DHT22;9320;50.256;19.026;2023-02-11T00:04:55;1.30;90.90
18388;DHT22;9320;50.256;19.026;2023-02-11T00:07:23;1.20;90.70
18388;DHT22;9320;50.256;19.026;2023-02-11T00:09:51;1.20;90.50
18388;DHT22;9320;50.256;19.026;2023-02-11T00:12:19;1.20;90.70
18388;DHT22;9320;50.256;19.026;2023-02-11T00:14:48;1.20;90.70
18388;DHT22;9320;50.256;19.026;2023-02-11T00:17:16;1.10;90.90
18388;DHT22;9320;50.256;19.026;2023-02-11T00:19:48;1.20;90.90
18388;DHT22;9320;50.256;19.026;2023-02-11T00:22:16;1.10;90.90
18388;DHT22;9320;50.256;19.026;2023-02-11T00:24:44;1.10;91.00
18388;DHT22;9320;50.256;19.026;2023-02-11T00:27:12;1.10;91.00
18388;DHT22;9320;50.256;19.026;2023-02-11T00:29:40;0.90;91.30
18388;DHT22;9320;50.256;19.026;2023-02-11T00:32:09;0.90;91.50
18388;DHT22;9320;50.256;19.026;2023-02-11T00:34:37;0.90;91.50
18388;DHT22;9320;50.256;19.026;2023-02-11T00:37:06;0.90;91.60
18388;DHT22;9320;50.256;19.026;2023-02-11T00:39:35;1.00;91.60
18388;DHT22;9320;50.256;19.026;2023-02-11T00:42:04;1.00;91.70
18388;DHT22;9320;50.256;19.026;2023-02-11T00:44:32;1.00;91.70
18388;DHT22;9320;50.256;19.026;2023-02-11T00:47:00;0.90;91.60
18388;DHT22;9320;50.256;19.026;2023-02-11T00:49:27;0.90;91.80
18388;DHT22;9320;50.256;19.026;2023-02-11T00:51:56;0.80;92.00
18388;DHT22;9320;50.256;19.026;2023-02-11T00:54:25;0.80;92.00
18388;DHT22;9320;50.256;19.026;2023-02-11T00:56:55;0.80;92.20
18388;DHT22;9320;50.256;19.026;2023-02-11T00:59:23;0.80;92.30
18388;DHT22;9320;50.256;19.026;2023-02-11T01:01:51;0.80;92.30
18388;DHT22;9320;50.256;19.026;2023-02-11T01:04:19;0.70;92.40
18388;DHT22;9320;50.256;19.026;2023-02-11T01:06:47;0.70;92.70
18388;DHT22;9320;50.256;19.026;2023-02-11T01:09:15;0.70;92.60
18388;DHT22;9320;50.256;19.026;2023-02-11T01:11:45;0.70;92.70
18388;DHT22;9320;50.256;19.026;2023-02-11T01:14:13;0.80;92.70
18388;DHT22;9320;50.256;19.026;2023-02-11T01:16:41;0.80;92.60
18388;DHT22;9320;50.256;19.026;2023-02-11T01:19:09;0.80;92.50
18388;DHT22;9320;50.256;19.026;2023-02-11T01:21:37;0.70;92.70
18388;DHT22;9320;50.256;19.026;2023-02-11T01:24:05;0.70;92.80
18388;DHT22;9320;50.256;19.026;2023-02-11T01:26:33;0.70;92.70
18388;DHT22;9320;50.256;19.026;2023-02-11T01:29:03;0.80;92.80
18388;DHT22;9320;50.256;19.026;2023-02-11T01:31:31;0.70;92.90
18388;DHT22;9320;50.256;19.026;2023-02-11T01:33:59;0.70;92.90
18388;DHT22;9320;50.256;19.026;2023-02-11T01:36:27;0.80;93.00
18388;DHT22;9320;50.256;19.026;2023-02-11T01:38:55;0.90;93.00
18388;DHT22;9320;50.256;19.026;2023-02-11T01:41:23;1.00;92.70
18388;DHT22;9320;50.256;19.026;2023-02-11T01:43:51;1.00;92.50
18388;DHT22;9320;50.256;19.026;2023-02-11T01:46:27;0.90;93.10
18388;DHT22;9320;50.256;19.026;2023-02-11T01:49:00;0.90;92.80
18388;DHT22;9320;50.256;19.026;2023-02-11T01:51:33;0.90;92.90
18388;DHT22;9320;50.256;19.026;2023-02-11T01:54:03;0.90;93.00
18388;DHT22;9320;50.256;19.026;2023-02-11T01:56:50;0.80;93.20
18388;DHT22;9320;50.256;19.026;2023-02-11T01:59:40;0.90;93.30
18388;DHT22;9320;50.256;19.026;2023-02-11T02:02:14;0.90;93.30
18388;DHT22;9320;50.256;19.026;2023-02-11T02:04:48;1.00;93.10
18388;DHT22;9320;50.256;19.026;2023-02-11T02:07:25;1.00;93.10
18388;DHT22;9320;50.256;19.026;2023-02-11T02:09:59;0.90;93.30
18388;DHT22;9320;50.256;19.026;2023-02-11T02:12:29;1.00;93.20
18388;DHT22;9320;50.256;19.026;2023-02-11T02:15:20;1.00;93.10
18388;DHT22;9320;50.256;19.026;2023-02-11T02:17:58;1.10;93.00
18388;DHT22;9320;50.256;19.026;2023-02-11T02:20:48;1.20;92.80
18388;DHT22;9320;50.256;19.026;2023-02-11T02:23:52;1.20;92.80
18388;DHT22;9320;50.256;19.026;2023-02-11T02:29:32;1.20;92.80
18388;DHT22;9320;50.256;19.026;2023-02-11T02:32:24;1.20;92.60
18388;DHT22;9320;50.256;19.026;2023-02-11T02:35:01;1.20;92.60
18388;DHT22;9320;50.256;19.026;2023-02-11T02:37:35;1.30;92.70
18388;DHT22;9320;50.256;19.026;2023-02-11T02:40:10;1.30;92.60
18388;DHT22;9320;50.256;19.026;2023-02-11T02:42:40;1.30;92.50
18388;DHT22;9320;50.256;19.026;2023-02-11T02:45:10;1.30;92.40
18388;DHT22;9320;50.256;19.026;2023-02-11T02:47:39;1.40;92.40
18388;DHT22;9320;50.256;19.026;2023-02-11T02:50:09;1.50;92.20
18388;DHT22;9320;50.256;19.026;2023-02-11T02:52:44;1.50;91.90
18388;DHT22;9320;50.256;19.026;2023-02-11T02:55:34;1.50;91.60
18388;DHT22;9320;50.256;19.026;2023-02-11T03:01:08;1.50;91.50
18388;DHT22;9320;50.256;19.026;2023-02-11T03:03:46;1.60;91.50
18388;DHT22;9320;50.256;19.026;2023-02-11T03:06:22;1.60;91.30
18388;DHT22;9320;50.256;19.026;2023-02-11T03:08:56;1.60;91.20
18388;DHT22;9320;50.256;19.026;2023-02-11T03:11:27;1.70;91.20
18388;DHT22;9320;50.256;19.026;2023-02-11T03:13:56;1.80;90.80
18388;DHT22;9320;50.256;19.026;2023-02-11T03:16:26;1.80;90.60
18388;DHT22;9320;50.256;19.026;2023-02-11T03:19:02;1.80;90.70
18388;DHT22;9320;50.256;19.026;2023-02-11T03:21:34;1.80;90.50
18388;DHT22;9320;50.256;19.026;2023-02-11T03:24:07;1.90;90.30
18388;DHT22;9320;50.256;19.026;2023-02-11T03:26:39;2.00;90.30
18388;DHT22;9320;50.256;19.026;2023-02-11T03:29:15;2.10;90.10
18388;DHT22;9320;50.256;19.026;2023-02-11T03:31:50;2.10;90.20
18388;DHT22;9320;50.256;19.026;2023-02-11T03:34:26;2.20;90.00
18388;DHT22;9320;50.256;19.026;2023-02-11T03:37:00;2.10;89.40
18388;DHT22;9320;50.256;19.026;2023-02-11T03:39:34;2.00;89.60
18388;DHT22;9320;50.256;19.026;2023-02-11T03:42:05;2.00;89.80
18388;DHT22;9320;50.256;19.026;2023-02-11T03:44:37;1.90;89.90
18388;DHT22;9320;50.256;19.026;2023-02-11T03:47:09;1.90;90.00
18388;DHT22;9320;50.256;19.026;2023-02-11T03:49:40;1.90;90.00
18388;DHT22;9320;50.256;19.026;2023-02-11T03:52:10;2.00;89.70
18388;DHT22;9320;50.256;19.026;2023-02-11T03:54:40;2.00;89.80
18388;DHT22;9320;50.256;19.026;2023-02-11T03:57:10;1.80;90.00
18388;DHT22;9320;50.256;19.026;2023-02-11T03:59:52;1.80;90.50
18388;DHT22;9320;50.256;19.026;2023-02-11T04:02:21;1.80;90.10
18388;DHT22;9320;50.256;19.026;2023-02-11T04:04:52;1.80;90.10
18388;DHT22;9320;50.256;19.026;2023-02-11T04:07:20;1.70;90.10
18388;DHT22;9320;50.256;19.026;2023-02-11T04:09:48;1.70;90.20
18388;DHT22;9320;50.256;19.026;2023-02-11T04:12:16;1.60;90.30
18388;DHT22;9320;50.256;19.026;2023-02-11T04:14:44;1.60;90.40
18388;DHT22;9320;50.256;19.026;2023-02-11T04:17:12;1.60;90.40
18388;DHT22;9320;50.256;19.026;2023-02-11T04:19:40;1.50;90.70
18388;DHT22;9320;50.256;19.026;2023-02-11T04:22:10;1.50;90.80
18388;DHT22;9320;50.256;19.026;2023-02-11T04:24:38;1.50;90.80
18388;DHT22;9320;50.256;19.026;2023-02-11T04:27:06;1.60;90.60
18388;DHT22;9320;50.256;19.026;2023-02-11T04:29:34;1.60;90.70
18388;DHT22;9320;50.256;19.026;2023-02-11T04:32:02;1.50;90.70
18388;DHT22;9320;50.256;19.026;2023-02-11T04:34:31;1.50;90.90
18388;DHT22;9320;50.256;19.026;2023-02-11T04:36:59;1.60;90.90
18388;DHT22;9320;50.256;19.026;2023-02-11T04:39:28;1.50;90.90
18388;DHT22;9320;50.256;19.026;2023-02-11T04:41:56;1.60;91.00
18388;DHT22;9320;50.256;19.026;2023-02-11T04:44:24;1.60;91.10
18388;DHT22;9320;50.256;19.026;2023-02-11T04:46:52;1.60;91.10
18388;DHT22;9320;50.256;19.026;2023-02-11T04:49:20;1.50;91.20
18388;DHT22;9320;50.256;19.026;2023-02-11T04:51:48;1.50;91.20
18388;DHT22;9320;50.256;19.026;2023-02-11T04:54:17;1.50;91.40
18388;DHT22;9320;50.256;19.026;2023-02-11T04:56:47;1.60;91.30
18388;DHT22;9320;50.256;19.026;2023-02-11T04:59:15;1.70;91.30
18388;DHT22;9320;50.256;19.026;2023-02-11T05:01:43;1.80;91.20
18388;DHT22;9320;50.256;19.026;2023-02-11T05:04:11;1.80;91.00
18388;DHT22;9320;50.256;19.026;2023-02-11T05:06:39;1.80;91.00
18388;DHT22;9320;50.256;19.026;2023-02-11T05:09:08;1.90;91.10
18388;DHT22;9320;50.256;19.026;2023-02-11T05:11:37;2.10;91.00
18388;DHT22;9320;50.256;19.026;2023-02-11T05:14:07;2.00;90.80
18388;DHT22;9320;50.256;19.026;2023-02-11T05:16:35;2.00;91.10
18388;DHT22;9320;50.256;19.026;2023-02-11T05:19:03;2.10;91.00
18388;DHT22;9320;50.256;19.026;2023-02-11T05:21:31;2.10;91.00
18388;DHT22;9320;50.256;19.026;2023-02-11T05:23:59;2.20;91.00
18388;DHT22;9320;50.256;19.026;2023-02-11T05:26:27;2.30;90.90
18388;DHT22;9320;50.256;19.026;2023-02-11T05:28:55;2.20;90.70
18388;DHT22;9320;50.256;19.026;2023-02-11T05:31:24;2.30;91.00
18388;DHT22;9320;50.256;19.026;2023-02-11T05:33:52;2.30;90.90
18388;DHT22;9320;50.256;19.026;2023-02-11T05:36:20;2.40;90.80
18388;DHT22;9320;50.256;19.026;2023-02-11T05:38:48;2.50;90.60
18388;DHT22;9320;50.256;19.026;2023-02-11T05:41:17;2.50;90.60
18388;DHT22;9320;50.256;19.026;2023-02-11T05:43:47;2.50;90.50
18388;DHT22;9320;50.256;19.026;2023-02-11T05:46:16;2.50;90.60
18388;DHT22;9320;50.256;19.026;2023-02-11T05:48:45;2.50;90.70
18388;DHT22;9320;50.256;19.026;2023-02-11T05:51:13;2.60;90.60
18388;DHT22;9320;50.256;19.026;2023-02-11T05:53:41;2.60;90.50
18388;DHT22;9320;50.256;19.026;2023-02-11T05:56:09;2.40;90.50
18388;DHT22;9320;50.256;19.026;2023-02-11T05:58:38;2.40;90.70
18388;DHT22;9320;50.256;19.026;2023-02-11T06:01:06;2.30;90.90
18388;DHT22;9320;50.256;19.026;2023-02-11T06:03:34;2.30;91.20
18388;DHT22;9320;50.256;19.026;2023-02-11T06:06:04;2.20;91.10
18388;DHT22;9320;50.256;19.026;2023-02-11T06:08:32;2.20;91.30
18388;DHT22;9320;50.256;19.026;2023-02-11T06:11:01;2.30;91.10
18388;DHT22;9320;50.256;19.026;2023-02-11T06:13:29;2.30;91.10
18388;DHT22;9320;50.256;19.026;2023-02-11T06:15:58;2.30;91.10
18388;DHT22;9320;50.256;19.026;2023-02-11T06:18:26;2.30;91.10
18388;DHT22;9320;50.256;19.026;2023-02-11T06:20:55;2.40;91.10
18388;DHT22;9320;50.256;19.026;2023-02-11T06:23:25;2.40;91.00
18388;DHT22;9320;50.256;19.026;2023-02-11T06:26:00;2.50;91.00
18388;DHT22;9320;50.256;19.026;2023-02-11T06:28:28;2.50;90.90
18388;DHT22;9320;50.256;19.026;2023-02-11T06:31:00;2.50;90.90
18388;DHT22;9320;50.256;19.026;2023-02-11T06:33:32;2.70;90.80
18388;DHT22;9320;50.256;19.026;2023-02-11T06:36:00;2.70;90.60
18388;DHT22;9320;50.256;19.026;2023-02-11T06:38:30;2.60;90.80
18388;DHT22;9320;50.256;19.026;2023-02-11T06:40:57;2.60;90.70
18388;DHT22;9320;50.256;19.026;2023-02-11T06:43:26;2.60;90.70
18388;DHT22;9320;50.256;19.026;2023-02-11T06:45:54;2.50;90.80
18388;DHT22;9320;50.256;19.026;2023-02-11T06:48:22;2.50;90.80
18388;DHT22;9320;50.256;19.026;2023-02-11T06:50:50;2.50;90.80
18388;DHT22;9320;50.256;19.026;2023-02-11T06:53:18;2.60;90.80
18388;DHT22;9320;50.256;19.026;2023-02-11T06:55:48;2.60;90.90
18388;DHT22;9320;50.256;19.026;2023-02-11T06:58:16;2.60;90.90
18388;DHT22;9320;50.256;19.026;2023-02-11T07:00:44;2.70;90.80
18388;DHT22;9320;50.256;19.026;2023-02-11T07:03:12;2.80;90.70
18388;DHT22;9320;50.256;19.026;2023-02-11T07:05:41;2.80;90.90
18388;DHT22;9320;50.256;19.026;2023-02-11T07:08:09;2.90;90.30
18388;DHT22;9320;50.256;19.026;2023-02-11T07:10:37;2.80;90.40
18388;DHT22;9320;50.256;19.026;2023-02-11T07:13:07;2.70;90.40
18388;DHT22;9320;50.256;19.026;2023-02-11T07:15:35;2.70;90.60
18388;DHT22;9320;50.256;19.026;2023-02-11T07:18:04;2.70;90.80
18388;DHT22;9320;50.256;19.026;2023-02-11T07:20:32;2.70;90.70
18388;DHT22;9320;50.256;19.026;2023-02-11T07:23:00;2.60;90.60
18388;DHT22;9320;50.256;19.026;2023-02-11T07:25:28;2.50;90.90
18388;DHT22;9320;50.256;19.026;2023-02-11T07:27:56;2.50;91.00
18388;DHT22;9320;50.256;19.026;2023-02-11T07:30:25;2.50;91.00
18388;DHT22;9320;50.256;19.026;2023-02-11T07:32:53;2.30;91.40
18388;DHT22;9320;50.256;19.026;2023-02-11T07:35:22;2.30;91.90
18388;DHT22;9320;50.256;19.026;2023-02-11T07:37:50;2.40;91.60
18388;DHT22;9320;50.256;19.026;2023-02-11T07:40:18;2.50;91.50
18388;DHT22;9320;50.256;19.026;2023-02-11T07:42:46;2.50;91.40
18388;DHT22;9320;50.256;19.026;2023-02-11T07:45:14;2.50;91.30
18388;DHT22;9320;50.256;19.026;2023-02-11T07:47:44;2.60;91.40
18388;DHT22;9320;50.256;19.026;2023-02-11T07:50:12;2.70;91.20
18388;DHT22;9320;50.256;19.026;2023-02-11T07:52:40;2.90;91.00
18388;DHT22;9320;50.256;19.026;2023-02-11T07:55:08;2.90;90.70
18388;DHT22;9320;50.256;19.026;2023-02-11T07:57:37;2.80;90.70
18388;DHT22;9320;50.256;19.026;2023-02-11T08:00:05;3.00;90.70
18388;DHT22;9320;50.256;19.026;2023-02-11T08:02:33;3.10;90.60
18388;DHT22;9320;50.256;19.026;2023-02-11T08:05:03;3.20;90.40
18388;DHT22;9320;50.256;19.026;2023-02-11T08:07:31;3.40;90.40
18388;DHT22;9320;50.256;19.026;2023-02-11T08:09:59;3.60;89.40
18388;DHT22;9320;50.256;19.026;2023-02-11T08:12:27;3.50;89.70
18388;DHT22;9320;50.256;19.026;2023-02-11T08:14:55;3.70;89.60
18388;DHT22;9320;50.256;19.026;2023-02-11T08:17:23;3.80;88.90
18388;DHT22;9320;50.256;19.026;2023-02-11T08:19:51;3.60;88.40
18388;DHT22;9320;50.256;19.026;2023-02-11T08:22:20;4.20;87.60
18388;DHT22;9320;50.256;19.026;2023-02-11T08:24:48;4.40;87.20
18388;DHT22;9320;50.256;19.026;2023-02-11T08:27:18;4.30;86.70
18388;DHT22;9320;50.256;19.026;2023-02-11T08:29:46;4.30;86.90
18388;DHT22;9320;50.256;19.026;2023-02-11T08:32:14;4.40;87.50
18388;DHT22;9320;50.256;19.026;2023-02-11T08:34:42;4.40;86.20
18388;DHT22;9320;50.256;19.026;2023-02-11T08:37:10;4.20;86.60
18388;DHT22;9320;50.256;19.026;2023-02-11T08:39:39;4.30;86.90
18388;DHT22;9320;50.256;19.026;2023-02-11T08:42:08;4.30;86.60
18388;DHT22;9320;50.256;19.026;2023-02-11T08:44:36;4.50;85.70
18388;DHT22;9320;50.256;19.026;2023-02-11T08:47:04;4.60;85.30
18388;DHT22;9320;50.256;19.026;2023-02-11T08:49:32;4.40;85.50
18388;DHT22;9320;50.256;19.026;2023-02-11T08:52:01;4.50;86.60
18388;DHT22;9320;50.256;19.026;2023-02-11T08:54:30;4.60;85.40
18388;DHT22;9320;50.256;19.026;2023-02-11T08:56:59;4.90;85.20
18388;DHT22;9320;50.256;19.026;2023-02-11T08:59:28;5.00;84.50
18388;DHT22;9320;50.256;19.026;2023-02-11T09:01:56;5.10;84.20
18388;DHT22;9320;50.256;19.026;2023-02-11T09:04:24;5.20;83.60
18388;DHT22;9320;50.256;19.026;2023-02-11T09:06:52;5.30;83.20
18388;DHT22;9320;50.256;19.026;2023-02-11T09:09:20;5.30;83.20
18388;DHT22;9320;50.256;19.026;2023-02-11T09:11:48;5.40;83.10
18388;DHT22;9320;50.256;19.026;2023-02-11T09:14:19;5.60;82.20
18388;DHT22;9320;50.256;19.026;2023-02-11T09:16:48;5.60;81.90
18388;DHT22;9320;50.256;19.026;2023-02-11T09:19:17;5.60;82.30
18388;DHT22;9320;50.256;19.026;2023-02-11T09:21:45;5.60;82.50
18388;DHT22;9320;50.256;19.026;2023-02-11T09:24:14;5.70;81.50
18388;DHT22;9320;50.256;19.026;2023-02-11T09:26:42;5.80;81.60
18388;DHT22;9320;50.256;19.026;2023-02-11T09:29:11;5.60;81.20
18388;DHT22;9320;50.256;19.026;2023-02-11T09:31:41;5.60;81.60
18388;DHT22;9320;50.256;19.026;2023-02-11T09:34:10;5.40;82.00
18388;DHT22;9320;50.256;19.026;2023-02-11T09:36:39;5.40;81.90
18388;DHT22;9320;50.256;19.026;2023-02-11T09:39:10;5.50;83.20
18388;DHT22;9320;50.256;19.026;2023-02-11T09:44:35;5.60;81.70
18388;DHT22;9320;50.256;19.026;2023-02-11T09:47:22;5.70;81.80
18388;DHT22;9320;50.256;19.026;2023-02-11T09:49:53;5.50;81.90
18388;DHT22;9320;50.256;19.026;2023-02-11T09:52:31;5.60;82.30
18388;DHT22;9320;50.256;19.026;2023-02-11T09:55:01;5.60;81.90
18388;DHT22;9320;50.256;19.026;2023-02-11T09:57:33;5.60;82.30
18388;DHT22;9320;50.256;19.026;2023-02-11T10:00:10;5.90;81.50
18388;DHT22;9320;50.256;19.026;2023-02-11T10:02:57;6.10;80.70
18388;DHT22;9320;50.256;19.026;2023-02-11T10:05:39;6.20;80.20
18388;DHT22;9320;50.256;19.026;2023-02-11T10:08:15;6.30;80.20
18388;DHT22;9320;50.256;19.026;2023-02-11T10:10:50;6.40;79.50
18388;DHT22;9320;50.256;19.026;2023-02-11T10:13:31;6.70;79.20
18388;DHT22;9320;50.256;19.026;2023-02-11T10:16:12;6.80;78.60
18388;DHT22;9320;50.256;19.026;2023-02-11T10:19:08;6.80;78.40
18388;DHT22;9320;50.256;19.026;2023-02-11T10:21:50;6.80;78.10
18388;DHT22;9320;50.256;19.026;2023-02-11T10:24:19;6.70;78.50
18388;DHT22;9320;50.256;19.026;2023-02-11T10:26:48;6.60;78.20
18388;DHT22;9320;50.256;19.026;2023-02-11T10:29:25;6.60;78.70
18388;DHT22;9320;50.256;19.026;2023-02-11T10:31:57;6.70;78.80
18388;DHT22;9320;50.256;19.026;2023-02-11T10:34:27;6.80;78.10
18388;DHT22;9320;50.256;19.026;2023-02-11T10:36:55;6.40;78.20
18388;DHT22;9320;50.256;19.026;2023-02-11T10:39:25;6.40;79.10
18388;DHT22;9320;50.256;19.026;2023-02-11T10:41:56;6.70;78.70
18388;DHT22;9320;50.256;19.026;2023-02-11T10:44:28;7.10;77.50
18388;DHT22;9320;50.256;19.026;2023-02-11T10:47:00;7.30;77.00
18388;DHT22;9320;50.256;19.026;2023-02-11T10:49:36;7.10;76.90
18388;DHT22;9320;50.256;19.026;2023-02-11T10:52:18;7.40;76.80
18388;DHT22;9320;50.256;19.026;2023-02-11T10:54:59;7.50;76.50
18388;DHT22;9320;50.256;19.026;2023-02-11T10:57:32;7.20;76.70
18388;DHT22;9320;50.256;19.026;2023-02-11T11:00:05;7.10;77.70
18388;DHT22;9320;50.256;19.026;2023-02-11T11:02:36;7.30;77.00
18388;DHT22;9320;50.256;19.026;2023-02-11T11:05:17;7.10;77.10
18388;DHT22;9320;50.256;19.026;2023-02-11T11:07:53;7.10;77.20
18388;DHT22;9320;50.256;19.026;2023-02-11T11:10:28;7.30;77.20
18388;DHT22;9320;50.256;19.026;2023-02-11T11:12:57;7.20;77.40
18388;DHT22;9320;50.256;19.026;2023-02-11T11:15:26;7.10;77.80
18388;DHT22;9320;50.256;19.026;2023-02-11T11:18:11;6.70;78.10
18388;DHT22;9320;50.256;19.026;2023-02-11T11:20:57;6.70;79.00
18388;DHT22;9320;50.256;19.026;2023-02-11T11:23:27;6.60;79.10
18388;DHT22;9320;50.256;19.026;2023-02-11T11:26:00;6.60;79.70
18388;DHT22;9320;50.256;19.026;2023-02-11T11:28:32;6.60;79.90
18388;DHT22;9320;50.256;19.026;2023-02-11T11:31:10;6.50;80.40
18388;DHT22;9320;50.256;19.026;2023-02-11T11:33:41;6.40;81.00
18388;DHT22;9320;50.256;19.026;2023-02-11T11:36:13;6.50;81.20
18388;DHT22;9320;50.256;19.026;2023-02-11T11:38:45;6.70;81.00
18388;DHT22;9320;50.256;19.026;2023-02-11T11:41:24;6.90;80.50
18388;DHT22;9320;50.256;19.026;2023-02-11T11:43:58;7.00;80.80
18388;DHT22;9320;50.256;19.026;2023-02-11T11:46:29;6.90;79.90
18388;DHT22;9320;50.256;19.026;2023-02-11T11:49:18;6.80;80.20
18388;DHT22;9320;50.256;19.026;2023-02-11T11:51:53;6.60;81.00
18388;DHT22;9320;50.256;19.026;2023-02-11T11:54:24;6.40;81.70
18388;DHT22;9320;50.256;19.026;2023-02-11T11:56:59;6.50;82.00
18388;DHT22;9320;50.256;19.026;2023-02-11T11:59:27;6.40;82.70
18388;DHT22;9320;50.256;19.026;2023-02-11T12:02:11;6.30;83.20
18388;DHT22;9320;50.256;19.026;2023-02-11T12:05:00;6.40;83.60
18388;DHT22;9320;50.256;19.026;2023-02-11T12:07:40;6.30;84.00
18388;DHT22;9320;50.256;19.026;2023-02-11T12:10:36;6.20;84.50
18388;DHT22;9320;50.256;19.026;2023-02-11T12:13:17;6.20;84.60
18388;DHT22;9320;50.256;19.026;2023-02-11T12:15:56;6.30;84.60
18388;DHT22;9320;50.256;19.026;2023-02-11T12:21:36;6.40;84.40
18388;DHT22;9320;50.256;19.026;2023-02-11T12:24:20;6.40;84.40
18388;DHT22;9320;50.256;19.026;2023-02-11T12:26:59;6.50;85.90
18388;DHT22;9320;50.256;19.026;2023-02-11T12:29:35;6.40;86.90
18388;DHT22;9320;50.256;19.026;2023-02-11T12:32:15;6.50;87.30
18388;DHT22;9320;50.256;19.026;2023-02-11T12:35:00;6.30;88.40
18388;DHT22;9320;50.256;19.026;2023-02-11T12:37:44;6.20;90.10
18388;DHT22;9320;50.256;19.026;2023-02-11T12:40:19;6.10;90.20
18388;DHT22;9320;50.256;19.026;2023-02-11T12:42:58;6.00;90.60
18388;DHT22;9320;50.256;19.026;2023-02-11T12:46:01;5.80;91.10
18388;DHT22;9320;50.256;19.026;2023-02-11T12:48:55;5.90;91.80
18388;DHT22;9320;50.256;19.026;2023-02-11T12:51:36;5.80;92.10
18388;DHT22;9320;50.256;19.026;2023-02-11T12:54:17;5.80;92.20
18388;DHT22;9320;50.256;19.026;2023-02-11T12:56:52;5.60;93.00
18388;DHT22;9320;50.256;19.026;2023-02-11T12:59:30;5.50;93.10
18388;DHT22;9320;50.256;19.026;2023-02-11T13:02:04;5.50;92.80
18388;DHT22;9320;50.256;19.026;2023-02-11T13:04:37;5.40;93.00
18388;DHT22;9320;50.256;19.026;2023-02-11T13:07:11;5.60;92.50
18388;DHT22;9320;50.256;19.026;2023-02-11T13:09:44;5.60;92.30
18388;DHT22;9320;50.256;19.026;2023-02-11T13:12:15;5.50;92.40
18388;DHT22;9320;50.256;19.026;2023-02-11T13:15:05;5.50;92.50
18388;DHT22;9320;50.256;19.026;2023-02-11T13:17:37;5.50;92.40
18388;DHT22;9320;50.256;19.026;2023-02-11T13:20:17;5.40;92.80
18388;DHT22;9320;50.256;19.026;2023-02-11T13:22:52;5.40;92.80
18388;DHT22;9320;50.256;19.026;2023-02-11T13:25:28;5.30;93.10
18388;DHT22;9320;50.256;19.026;2023-02-11T13:28:05;5.40;93.40
18388;DHT22;9320;50.256;19.026;2023-02-11T13:30:38;5.30;93.80
18388;DHT22;9320;50.256;19.026;2023-02-11T13:33:19;5.30;94.00
18388;DHT22;9320;50.256;19.026;2023-02-11T13:35:49;5.30;95.80
18388;DHT22;9320;50.256;19.026;2023-02-11T13:38:37;5.10;97.20
18388;DHT22;9320;50.256;19.026;2023-02-11T13:41:18;5.00;99.10
18388;DHT22;9320;50.256;19.026;2023-02-11T13:46:56;5.10;99.90
18388;DHT22;9320;50.256;19.026;2023-02-11T13:49:30;5.20;99.90
18388;DHT22;9320;50.256;19.026;2023-02-11T13:52:00;5.20;99.90
18388;DHT22;9320;50.256;19.026;2023-02-11T13:54:34;5.10;99.90
18388;DHT22;9320;50.256;19.026;2023-02-11T13:57:21;5.10;99.90
18388;DHT22;9320;50.256;19.026;2023-02-11T13:59:52;5.20;99.90
18388;DHT22;9320;50.256;19.026;2023-02-11T14:02:27;5.30;99.90
18388;DHT22;9320;50.256;19.026;2023-02-11T14:05:25;5.30;99.90
18388;DHT22;9320;50.256;19.026;2023-02-11T14:08:20;5.30;99.90
18388;DHT22;9320;50.256;19.026;2023-02-11T14:11:07;5.30;99.90
18388;DHT22;9320;50.256;19.026;2023-02-11T14:14:15;5.40;99.90
18388;DHT22;9320;50.256;19.026;2023-02-11T14:19:51;5.30;99.90
18388;DHT22;9320;50.256;19.026;2023-02-11T14:22:23;5.30;99.90
18388;DHT22;9320;50.256;19.026;2023-02-11T14:24:55;5.20;99.90
18388;DHT22;9320;50.256;19.026;2023-02-11T14:27:33;5.30;99.90
18388;DHT22;9320;50.256;19.026;2023-02-11T14:30:19;5.20;99.90
18388;DHT22;9320;50.256;19.026;2023-02-11T14:33:19;5.10;99.90
18388;DHT22;9320;50.256;19.026;2023-02-11T14:35:59;5.10;99.90
18388;DHT22;9320;50.256;19.026;2023-02-11T14:38:37;5.10;99.90
18388;DHT22;9320;50.256;19.026;2023-02-11T14:41:13;5.00;99.90
18388;DHT22;9320;50.256;19.026;2023-02-11T14:43:45;4.90;99.90
18388;DHT22;9320;50.256;19.026;2023-02-11T14:46:15;4.80;99.90
18388;DHT22;9320;50.256;19.026;2023-02-11T14:48:46;4.80;99.90
18388;DHT22;9320;50.256;19.026;2023-02-11T14:51:19;4.80;99.90
18388;DHT22;9320;50.256;19.026;2023-02-11T14:53:51;4.80;99.90
18388;DHT22;9320;50.256;19.026;2023-02-11T14:56:21;4.70;99.90
18388;DHT22;9320;50.256;19.026;2023-02-11T14:58:50;4.60;99.90
18388;DHT22;9320;50.256;19.026;2023-02-11T15:01:28;4.60;99.90
18388;DHT22;9320;50.256;19.026;2023-02-11T15:03:57;4.60;99.90
18388;DHT22;9320;50.256;19.026;2023-02-11T15:06:31;4.60;99.90
18388;DHT22;9320;50.256;19.026;2023-02-11T15:09:03;4.60;99.90
18388;DHT22;9320;50.256;19.026;2023-02-11T15:11:33;4.40;99.90
18388;DHT22;9320;50.256;19.026;2023-02-11T15:14:07;4.50;99.90
18388;DHT22;9320;50.256;19.026;2023-02-11T15:16:40;4.60;99.90
18388;DHT22;9320;50.256;19.026;2023-02-11T15:19:19;4.70;99.90
18388;DHT22;9320;50.256;19.026;2023-02-11T15:21:50;4.70;99.90
18388;DHT22;9320;50.256;19.026;2023-02-11T15:24:23;4.60;99.90
18388;DHT22;9320;50.256;19.026;2023-02-11T15:26:59;4.60;99.90
18388;DHT22;9320;50.256;19.026;2023-02-11T15:29:34;4.60;99.90
18388;DHT22;9320;50.256;19.026;2023-02-11T15:32:05;4.70;99.90
18388;DHT22;9320;50.256;19.026;2023-02-11T15:34:33;4.80;99.90
18388;DHT22;9320;50.256;19.026;2023-02-11T15:37:03;4.80;99.90
18388;DHT22;9320;50.256;19.026;2023-02-11T15:39:33;4.80;99.90
18388;DHT22;9320;50.256;19.026;2023-02-11T15:42:20;4.60;99.90
18388;DHT22;9320;50.256;19.026;2023-02-11T15:45:07;4.60;99.90
18388;DHT22;9320;50.256;19.026;2023-02-11T15:47:35;4.70;99.90
18388;DHT22;9320;50.256;19.026;2023-02-11T15:50:04;4.70;99.90
18388;DHT22;9320;50.256;19.026;2023-02-11T15:52:34;4.60;99.90
18388;DHT22;9320;50.256;19.026;2023-02-11T15:55:02;4.50;99.90
18388;DHT22;9320;50.256;19.026;2023-02-11T15:57:30;4.50;99.90
18388;DHT22;9320;50.256;19.026;2023-02-11T16:00:00;4.50;99.90
18388;DHT22;9320;50.256;19.026;2023-02-11T16:02:34;4.50;99.90
18388;DHT22;9320;50.256;19.026;2023-02-11T16:05:06;4.40;99.90
18388;DHT22;9320;50.256;19.026;2023-02-11T16:07:40;4.40;99.90
18388;DHT22;9320;50.256;19.026;2023-02-11T16:10:20;4.40;99.90
18388;DHT22;9320;50.256;19.026;2023-02-11T16:13:00;4.50;99.90
18388;DHT22;9320;50.256;19.026;2023-02-11T16:15:41;4.50;99.90
18388;DHT22;9320;50.256;19.026;2023-02-11T16:18:20;4.40;99.90
18388;DHT22;9320;50.256;19.026;2023-02-11T16:21:03;4.40;99.90
18388;DHT22;9320;50.256;19.026;2023-02-11T16:23:35;4.40;99.90
18388;DHT22;9320;50.256;19.026;2023-02-11T16:26:06;4.40;99.90
18388;DHT22;9320;50.256;19.026;2023-02-11T16:28:36;4.30;99.90
18388;DHT22;9320;50.256;19.026;2023-02-11T16:31:05;4.10;99.90
18388;DHT22;9320;50.256;19.026;2023-02-11T16:33:35;4.10;99.90
18388;DHT22;9320;50.256;19.026;2023-02-11T16:36:10;4.00;99.90
18388;DHT22;9320;50.256;19.026;2023-02-11T16:38:40;4.00;99.90